Time;durP1;ratioP1;P1;durP2;ratioP2;P2;SDS_P1;SDS_P2;PMS_P1;PMS_P2;Temp;Humidity;BMP_temperature;BMP_pressure;BME280_temperature;BME280_humidity;BME280_pressure;Samples;Min_cycle;Max_cycle;Signal;HPM_P1;HPM_P2
2022/03/13 00:01:27;;;;;;;10.45;4.32;;;0.20;43.70;;;;;;5053769;28;20048;-61
2022/03/13 00:03:53;;;;;;;8.43;4.05;;;0.50;44.20;;;;;;5053705;28;20032;-64
2022/03/13 00:06:31;;;;;;;8.10;3.33;;;1.40;45.00;;;;;;5052067;28;20021;-61
2022/03/13 00:08:57;;;;;;;6.32;2.75;;;1.50;45.20;;;;;;5053644;28;20048;-61
2022/03/13 00:11:23;;;;;;;16.52;4.30;;;0.10;44.80;;;;;;5052120;28;20056;-60
2022/03/13 00:13:53;;;;;;;11.68;4.20;;;0.70;45.40;;;;;;5053591;28;20025;-60
2022/03/13 00:16:19;;;;;;;8.77;3.90;;;1.30;45.60;;;;;;5053410;28;20107;-60
2022/03/13 00:18:48;;;;;;;10.88;4.45;;;1.70;45.70;;;;;;5052060;28;20033;-60
2022/03/13 00:21:16;;;;;;;7.65;4.32;;;0.30;45.10;;;;;;5053311;28;20036;-60
2022/03/13 00:23:43;;;;;;;12.53;4.33;;;0.60;45.30;;;;;;5052051;28;20036;-60
2022/03/13 00:26:09;;;;;;;8.00;4.18;;;0.10;45.30;;;;;;5052139;28;20627;-61
2022/03/13 00:28:37;;;;;;;11.00;4.03;;;2.00;46.60;;;;;;5052169;28;20059;-60
2022/03/13 00:31:04;;;;;;;9.65;4.60;;;0.10;45.80;;;;;;5052353;28;20041;-60
2022/03/13 00:33:30;;;;;;;10.45;5.13;;;1.80;46.70;;;;;;5053181;28;20090;-60
2022/03/13 00:35:56;;;;;;;9.27;3.90;;;0.00;46.00;;;;;;5053138;28;20025;-60
2022/03/13 00:38:25;;;;;;;10.35;3.80;;;0.00;45.90;;;;;;5051909;28;20085;-60
2022/03/13 00:40:51;;;;;;;;;;;-0.10;46.00;;;;;;5053484;28;20025;-60
2022/03/13 00:43:19;;;;;;;12.23;5.35;;;0.70;46.60;;;;;;5055702;28;20365;-60
2022/03/13 00:45:45;;;;;;;9.10;3.97;;;-0.10;46.20;;;;;;5055477;28;20029;-61
2022/03/13 00:48:12;;;;;;;8.18;3.90;;;-0.10;46.40;;;;;;5056969;28;20032;-61
2022/03/13 00:50:38;;;;;;;11.18;4.88;;;1.50;47.40;;;;;;5056850;28;20029;-60
2022/03/13 00:53:05;;;;;;;5.75;3.67;;;1.50;47.30;;;;;;5056819;28;20021;-60
2022/03/13 00:55:31;;;;;;;8.55;3.90;;;-0.10;46.50;;;;;;5055369;28;20487;-61
2022/03/13 00:57:57;;;;;;;9.43;4.43;;;0.00;46.90;;;;;;5056275;28;20531;-60
2022/03/13 01:00:22;;;;;;;9.90;4.22;;;-0.10;46.70;;;;;;5056398;28;20025;-60
2022/03/13 01:02:49;;;;;;;9.80;4.32;;;1.80;48.00;;;;;;5056441;28;20397;-61
2022/03/13 01:05:24;;;;;;;10.73;4.10;;;-0.10;47.10;;;;;;5055106;28;20040;-60
2022/03/13 01:07:55;;;;;;;11.25;4.60;;;-0.10;47.20;;;;;;5056444;28;20094;-60
2022/03/13 01:10:22;;;;;;;6.60;3.92;;;-0.10;47.30;;;;;;5055035;28;20459;-60
2022/03/13 01:12:49;;;;;;;8.68;4.07;;;-0.20;47.80;;;;;;5056402;28;20029;-60
2022/03/13 01:15:16;;;;;;;8.48;3.47;;;-0.20;47.60;;;;;;5054965;28;20037;-60
2022/03/13 01:17:42;;;;;;;8.32;3.92;;;-0.20;47.70;;;;;;5054850;28;20025;-60
2022/03/13 01:20:22;;;;;;;12.23;4.43;;;0.50;48.30;;;;;;5056022;28;20059;-60
2022/03/13 01:22:51;;;;;;;9.38;4.30;;;2.00;49.30;;;;;;5056040;28;20021;-60
2022/03/13 01:25:17;;;;;;;8.25;4.45;;;-0.30;48.50;;;;;;5055065;28;20086;-60
2022/03/13 01:27:42;;;;;;;10.88;4.43;;;2.00;50.00;;;;;;5055941;28;20037;-61
2022/03/13 01:30:09;;;;;;;9.73;4.60;;;1.60;50.40;;;;;;5055890;28;20420;-60
2022/03/13 01:32:35;;;;;;;10.15;4.53;;;-0.40;49.50;;;;;;5055915;28;20040;-60
2022/03/13 01:35:02;;;;;;;10.07;4.07;;;-0.40;49.10;;;;;;5055801;28;20074;-60
2022/03/13 01:37:30;;;;;;;7.68;3.80;;;-0.40;49.30;;;;;;5054210;28;20025;-60
2022/03/13 01:39:59;;;;;;;7.60;4.35;;;-0.40;49.60;;;;;;5055890;28;20029;-60
2022/03/13 01:42:25;;;;;;;11.45;5.38;;;-0.40;49.70;;;;;;5055415;28;20548;-60
2022/03/13 01:44:51;;;;;;;11.40;4.70;;;-0.30;49.40;;;;;;5054361;28;20021;-61
2022/03/13 01:47:17;;;;;;;7.50;4.20;;;-0.40;49.50;;;;;;5054316;28;20028;-61
2022/03/13 01:49:43;;;;;;;13.25;4.55;;;-0.10;49.80;;;;;;5054285;28;20112;-60
2022/03/13 01:52:09;;;;;;;7.63;3.53;;;0.60;50.10;;;;;;5053950;28;20055;-60
2022/03/13 01:54:35;;;;;;;7.90;4.45;;;-0.30;49.40;;;;;;5053599;28;20033;-60
2022/03/13 01:57:01;;;;;;;7.75;3.85;;;1.70;50.40;;;;;;5055472;28;20049;-60
2022/03/13 01:59:29;;;;;;;7.07;4.10;;;1.40;50.30;;;;;;5054332;28;20457;-60
2022/03/13 02:01:56;;;;;;;12.02;4.85;;;-0.30;49.60;;;;;;5055320;28;20461;-60
2022/03/13 02:04:30;;;;;;;8.43;4.57;;;-0.30;49.50;;;;;;5053961;28;20457;-60
2022/03/13 02:06:58;;;;;;;12.48;4.60;;;0.40;49.90;;;;;;5055160;28;20049;-60
2022/03/13 02:09:25;;;;;;;7.67;4.07;;;-0.30;49.40;;;;;;5055455;28;20021;-60
2022/03/13 02:11:51;;;;;;;9.95;4.82;;;1.30;50.10;;;;;;5055381;28;20259;-60
2022/03/13 02:14:21;;;;;;;10.18;4.45;;;1.30;50.20;;;;;;5055121;28;20025;-60
2022/03/13 02:16:48;;;;;;;9.43;4.53;;;-0.30;49.30;;;;;;5055112;28;20480;-60
2022/03/13 02:19:16;;;;;;;10.57;4.95;;;-0.30;49.30;;;;;;5055523;28;20381;-60
2022/03/13 02:21:44;;;;;;;10.32;5.40;;;1.00;50.10;;;;;;5054841;28;20461;-60
2022/03/13 02:24:15;;;;;;;14.55;5.13;;;0.90;50.30;;;;;;5053639;28;20155;-60
2022/03/13 02:26:55;;;;;;;9.70;4.25;;;-0.40;49.50;;;;;;5054835;28;20029;-60
2022/03/13 02:29:20;;;;;;;8.40;4.45;;;1.20;50.30;;;;;;5054990;28;20025;-60
2022/03/13 02:31:46;;;;;;;9.32;4.40;;;1.90;50.70;;;;;;5054535;28;20515;-60
2022/03/13 02:34:14;;;;;;;8.85;4.25;;;-0.30;49.60;;;;;;5053441;28;20033;-60
2022/03/13 02:36:43;;;;;;;9.57;4.00;;;1.20;50.50;;;;;;5054397;28;20032;-60
2022/03/13 02:39:10;;;;;;;9.95;4.20;;;-0.30;49.90;;;;;;5053263;28;20025;-60
2022/03/13 02:41:37;;;;;;;12.93;4.88;;;1.40;50.80;;;;;;5054568;28;20469;-60
2022/03/13 02:44:06;;;;;;;9.02;4.65;;;-0.10;50.20;;;;;;5053520;28;20033;-60
2022/03/13 02:46:49;;;;;;;8.30;4.03;;;-0.40;50.20;;;;;;5053257;28;20115;-60
2022/03/13 02:49:17;;;;;;;12.48;4.75;;;-0.50;50.50;;;;;;5054365;28;20059;-60
2022/03/13 02:51:44;;;;;;;11.25;4.47;;;-0.60;50.70;;;;;;5054444;28;20029;-60
2022/03/13 02:54:09;;;;;;;7.35;4.00;;;-0.60;50.60;;;;;;5053028;28;20107;-60
2022/03/13 02:56:35;;;;;;;7.85;4.20;;;-0.60;50.80;;;;;;5054358;28;20461;-61
2022/03/13 02:59:01;;;;;;;7.13;4.25;;;1.50;51.90;;;;;;5053066;28;20025;-60
2022/03/13 03:01:26;;;;;;;9.15;4.53;;;-0.50;51.00;;;;;;5053000;28;20033;-60
2022/03/13 03:04:00;;;;;;;10.25;4.35;;;0.80;51.50;;;;;;5054388;28;20032;-60
2022/03/13 03:06:28;;;;;;;8.93;4.40;;;1.70;52.00;;;;;;5051788;28;20032;-60
2022/03/13 03:08:54;;;;;;;8.43;4.13;;;-0.20;51.00;;;;;;5054550;28;20369;-60
2022/03/13 03:11:19;;;;;;;12.30;4.85;;;-0.50;51.10;;;;;;5052788;28;20033;-60
2022/03/13 03:13:45;;;;;;;11.43;4.72;;;-0.30;51.50;;;;;;5052763;28;20033;-60
2022/03/13 03:16:11;;;;;;;12.57;4.40;;;0.10;51.80;;;;;;5054232;28;20072;-61
2022/03/13 03:18:36;;;;;;;9.10;4.30;;;0.00;51.90;;;;;;5053973;28;20075;-60
2022/03/13 03:21:02;;;;;;;9.85;5.13;;;-0.60;51.80;;;;;;5053822;28;20515;-61
2022/03/13 03:26:12;;;;;;;7.35;3.97;;;0.50;53.10;;;;;;5054127;28;20082;-60
2022/03/13 03:28:38;;;;;;;8.82;4.43;;;-0.70;52.70;;;;;;5053541;28;20021;-60
2022/03/13 03:31:03;;;;;;;8.15;3.58;;;0.20;53.60;;;;;;5052851;28;20358;-60
2022/03/13 03:33:29;;;;;;;11.27;4.22;;;-0.70;52.80;;;;;;5053653;28;20028;-60
2022/03/13 03:35:55;;;;;;;9.20;4.55;;;1.00;53.60;;;;;;5053839;28;20484;-60
2022/03/13 03:38:20;;;;;;;15.68;4.38;;;1.10;53.70;;;;;;5053743;28;20059;-60
2022/03/13 03:40:47;;;;;;;8.07;4.13;;;-0.70;53.20;;;;;;5053811;28;20033;-60
2022/03/13 03:43:13;;;;;;;10.15;4.55;;;-0.70;53.30;;;;;;5052658;28;20060;-60
2022/03/13 03:45:40;;;;;;;9.07;4.60;;;-0.70;53.90;;;;;;5052358;28;20022;-61
2022/03/13 03:48:06;;;;;;;7.72;3.90;;;-0.70;54.30;;;;;;5053610;28;20056;-60
2022/03/13 03:50:31;;;;;;;11.93;4.93;;;-0.70;54.70;;;;;;5053587;28;20065;-60
2022/03/13 03:52:58;;;;;;;8.82;4.40;;;-0.10;55.00;;;;;;5052310;28;20056;-60
2022/03/13 03:55:25;;;;;;;8.23;4.45;;;1.70;56.10;;;;;;5052270;28;20033;-61
2022/03/13 03:57:51;;;;;;;8.43;4.28;;;-0.70;55.00;;;;;;5053678;28;20120;-60
2022/03/13 04:00:18;;;;;;;10.00;4.57;;;-0.60;55.30;;;;;;5053796;28;20483;-60
2022/03/13 04:02:44;;;;;;;8.80;4.15;;;-0.80;55.80;;;;;;5052203;28;20029;-60
2022/03/13 04:05:10;;;;;;;8.80;4.47;;;1.60;57.50;;;;;;5053735;28;20457;-61
2022/03/13 04:07:36;;;;;;;11.27;4.55;;;1.50;58.30;;;;;;5051648;28;20048;-60
2022/03/13 04:10:03;;;;;;;8.50;4.13;;;1.20;58.80;;;;;;5053586;28;20173;-60
2022/03/13 04:12:30;;;;;;;11.45;4.30;;;-0.80;58.30;;;;;;5053126;28;20036;-60
2022/03/13 04:14:56;;;;;;;8.88;4.35;;;-0.90;58.60;;;;;;5053393;28;20029;-60
2022/03/13 04:17:21;;;;;;;12.13;4.70;;;0.20;59.50;;;;;;5054003;28;20074;-60
2022/03/13 04:19:47;;;;;;;9.55;4.55;;;-0.90;59.50;;;;;;5057144;28;20060;-60
2022/03/13 04:22:15;;;;;;;9.82;4.57;;;-1.00;59.60;;;;;;5057213;28;20029;-60
2022/03/13 04:24:41;;;;;;;9.75;4.88;;;1.30;61.40;;;;;;5057601;28;20033;-60
2022/03/13 04:27:06;;;;;;;11.07;5.10;;;-1.10;60.50;;;;;;5057118;28;20481;-61
2022/03/13 04:29:34;;;;;;;10.80;4.85;;;-1.10;61.20;;;;;;5055892;28;20543;-60
2022/03/13 04:32:02;;;;;;;11.75;4.68;;;-1.10;62.00;;;;;;5055761;28;20047;-60
2022/03/13 04:34:28;;;;;;;10.95;4.60;;;-1.20;62.30;;;;;;5056989;28;20056;-60
2022/03/13 04:36:54;;;;;;;13.35;6.00;;;0.00;64.10;;;;;;5056668;28;20110;-60
2022/03/13 04:39:20;;;;;;;12.38;4.32;;;1.10;64.80;;;;;;5056903;28;20021;-60
2022/03/13 04:41:45;;;;;;;12.07;4.38;;;-1.30;64.00;;;;;;5056488;28;20047;-60
2022/03/13 04:44:16;;;;;;;8.57;4.13;;;0.20;65.20;;;;;;5056809;28;20439;-60
2022/03/13 04:46:42;;;;;;;10.10;4.50;;;-1.20;64.90;;;;;;5056797;28;20029;-60
2022/03/13 04:49:08;;;;;;;11.07;4.07;;;-1.30;65.60;;;;;;5057025;28;20414;-61
2022/03/13 04:51:34;;;;;;;9.55;4.30;;;-1.40;66.30;;;;;;5056659;28;20029;-60
2022/03/13 04:54:00;;;;;;;10.85;4.50;;;-1.40;66.70;;;;;;5056686;28;20057;-60
2022/03/13 04:56:26;;;;;;;8.73;4.18;;;-1.40;66.80;;;;;;5056642;28;20071;-60
2022/03/13 04:58:52;;;;;;;10.13;4.63;;;-1.40;67.50;;;;;;5055353;28;20032;-60
2022/03/13 05:01:19;;;;;;;8.40;3.92;;;0.20;68.60;;;;;;5056501;28;20063;-60
2022/03/13 05:03:45;;;;;;;10.80;5.00;;;0.40;69.40;;;;;;5055194;28;20029;-60
2022/03/13 05:06:12;;;;;;;10.45;4.13;;;-1.50;68.80;;;;;;5054912;28;20025;-60
2022/03/13 05:08:39;;;;;;;10.80;4.05;;;-1.50;69.40;;;;;;5055269;28;20083;-60
2022/03/13 05:11:05;;;;;;;7.00;4.32;;;0.10;70.50;;;;;;5055057;28;20441;-60
2022/03/13 05:13:32;;;;;;;11.75;4.95;;;-1.30;70.20;;;;;;5055413;28;20078;-60
2022/03/13 05:15:57;;;;;;;8.65;4.43;;;-0.10;71.00;;;;;;5056509;28;20024;-60
2022/03/13 05:18:23;;;;;;;6.78;4.03;;;-0.10;71.00;;;;;;5056220;28;20475;-60
2022/03/13 05:20:49;;;;;;;11.18;4.50;;;0.20;71.10;;;;;;5055332;28;20029;-60
2022/03/13 05:23:15;;;;;;;9.77;4.65;;;-1.60;71.00;;;;;;5056067;28;20029;-60
2022/03/13 05:25:41;;;;;;;8.80;4.40;;;-1.60;71.00;;;;;;5054793;28;20475;-60
2022/03/13 05:28:10;;;;;;;8.13;3.83;;;-1.60;71.80;;;;;;5054563;28;20037;-60
2022/03/13 05:30:37;;;;;;;9.15;4.32;;;0.40;73.00;;;;;;5054917;28;20029;-60
2022/03/13 05:33:04;;;;;;;7.28;4.22;;;-1.60;72.00;;;;;;5054649;28;20058;-61
2022/03/13 05:35:30;;;;;;;10.75;5.18;;;0.60;73.80;;;;;;5055587;28;20075;-60
2022/03/13 05:37:56;;;;;;;9.68;4.25;;;-0.60;72.90;;;;;;5055834;28;20056;-60
2022/03/13 05:40:23;;;;;;;15.60;5.25;;;-0.20;73.50;;;;;;5055851;28;20031;-60
2022/03/13 05:42:58;;;;;;;8.40;4.63;;;-1.60;73.80;;;;;;5054756;28;20040;-60
2022/03/13 05:45:27;;;;;;;7.28;4.28;;;-1.60;73.50;;;;;;5054437;28;20029;-60
2022/03/13 05:47:58;;;;;;;7.55;4.38;;;0.40;74.30;;;;;;5055806;28;20477;-60
2022/03/13 05:50:25;;;;;;;12.15;4.88;;;0.10;74.80;;;;;;5055739;28;20484;-60
2022/03/13 05:52:52;;;;;;;12.60;4.72;;;-0.20;74.50;;;;;;5055577;28;20029;-60
2022/03/13 05:55:19;;;;;;;10.50;4.38;;;-1.60;73.60;;;;;;5055487;28;20028;-60
2022/03/13 05:57:44;;;;;;;10.13;4.95;;;-0.60;74.20;;;;;;5055417;28;20017;-60
2022/03/13 06:00:13;;;;;;;9.30;4.68;;;-1.50;73.40;;;;;;5054027;28;20055;-60
2022/03/13 06:02:40;;;;;;;11.13;4.78;;;-1.50;73.70;;;;;;5054063;28;20039;-60
2022/03/13 06:05:09;;;;;;;11.20;4.53;;;-0.10;74.20;;;;;;5055256;28;20095;-60
2022/03/13 06:07:36;;;;;;;;;;;-1.40;73.00;;;;;;5055657;28;20524;-61
2022/03/13 06:10:04;;;;;;;11.65;4.55;;;1.00;74.40;;;;;;5054145;28;19912;-61
2022/03/13 06:12:30;;;;;;;;;;;-1.40;73.70;;;;;;5055545;28;20033;-61
2022/03/13 06:14:57;;;;;;;19.02;4.78;;;-1.40;74.20;;;;;;5055134;28;19905;-61
2022/03/13 06:17:23;;;;;;;10.57;4.78;;;0.80;75.50;;;;;;5053750;28;20112;-61
2022/03/13 06:19:49;;;;;;;9.70;4.32;;;-0.30;74.50;;;;;;5054920;28;20108;-61
2022/03/13 06:22:15;;;;;;;13.13;4.28;;;-1.20;74.20;;;;;;5054942;28;20063;-61
2022/03/13 06:24:41;;;;;;;8.88;4.55;;;-1.20;73.90;;;;;;5054909;28;20025;-61
2022/03/13 06:27:07;;;;;;;10.00;4.70;;;-0.90;72.60;;;;;;5054884;28;20064;-62
2022/03/13 06:29:32;;;;;;;13.10;5.20;;;-0.40;69.10;;;;;;5053479;28;20511;-61
2022/03/13 06:31:58;;;;;;;10.93;4.47;;;0.10;65.60;;;;;;5055148;28;20029;-62
2022/03/13 06:34:25;;;;;;;12.98;5.22;;;0.40;63.20;;;;;;5054641;28;20047;-62
2022/03/13 06:36:50;;;;;;;10.70;4.78;;;1.30;61.40;;;;;;5053413;28;20026;-61
2022/03/13 06:39:16;;;;;;;9.68;5.07;;;1.10;59.10;;;;;;5054814;28;20033;-61
2022/03/13 06:41:42;;;;;;;9.35;5.60;;;1.30;56.60;;;;;;5054285;28;20032;-61
2022/03/13 06:44:08;;;;;;;9.75;5.18;;;1.50;56.00;;;;;;5053251;28;20116;-61
2022/03/13 06:46:34;;;;;;;8.27;4.85;;;1.70;54.80;;;;;;5053292;28;20028;-61
2022/03/13 06:49:01;;;;;;;10.38;5.43;;;1.80;54.00;;;;;;5053484;28;20373;-61
2022/03/13 06:51:27;;;;;;;11.30;5.10;;;2.20;53.40;;;;;;5053167;28;20033;-61
2022/03/13 06:53:52;;;;;;;10.38;5.63;;;2.10;52.20;;;;;;5054112;28;20078;-61
2022/03/13 06:56:18;;;;;;;8.80;5.40;;;2.10;52.70;;;;;;5054063;28;20021;-61
2022/03/13 06:58:44;;;;;;;12.02;5.32;;;2.30;51.20;;;;;;5053082;28;20484;-61
2022/03/13 07:01:10;;;;;;;9.77;5.38;;;2.40;51.00;;;;;;5052919;28;20032;-61
2022/03/13 07:03:37;;;;;;;9.63;5.25;;;2.40;51.00;;;;;;5052905;28;20031;-61
2022/03/13 07:06:04;;;;;;;11.30;5.68;;;2.60;50.30;;;;;;5054164;28;20085;-61
2022/03/13 07:08:32;;;;;;;12.73;5.70;;;2.70;49.70;;;;;;5054242;28;20456;-62
2022/03/13 07:10:58;;;;;;;8.33;5.17;;;3.00;49.00;;;;;;5053092;28;20116;-61
2022/03/13 07:13:25;;;;;;;10.70;6.03;;;3.10;48.20;;;;;;5054065;28;20063;-62
2022/03/13 07:15:51;;;;;;;9.20;5.70;;;3.40;47.90;;;;;;5052756;28;20055;-61
2022/03/13 07:18:17;;;;;;;9.68;5.35;;;3.70;46.70;;;;;;5054213;28;20052;-62
2022/03/13 07:20:42;;;;;;;11.00;5.63;;;4.00;45.60;;;;;;5052615;28;20083;-61
2022/03/13 07:23:08;;;;;;;15.38;5.60;;;4.30;44.80;;;;;;5054183;28;20104;-64
2022/03/13 07:25:34;;;;;;;8.63;5.07;;;4.40;44.50;;;;;;5053893;28;20075;-61
2022/03/13 07:27:59;;;;;;;12.32;5.50;;;4.70;43.40;;;;;;5052696;28;20354;-62
2022/03/13 07:30:25;;;;;;;11.68;6.05;;;4.90;42.50;;;;;;5053212;28;20043;-62
2022/03/13 07:32:51;;;;;;;10.90;5.82;;;5.00;41.50;;;;;;5052780;28;20048;-62
2022/03/13 07:35:16;;;;;;;13.27;5.93;;;5.10;41.20;;;;;;5053492;28;20025;-62
2022/03/13 07:37:42;;;;;;;13.07;6.25;;;5.20;40.90;;;;;;5053504;28;20029;-62
2022/03/13 07:40:08;;;;;;;10.35;5.53;;;5.70;40.10;;;;;;5053620;28;20029;-62
2022/03/13 07:42:34;;;;;;;11.90;6.18;;;6.30;38.50;;;;;;5052458;28;20033;-62
2022/03/13 07:45:00;;;;;;;12.73;6.40;;;6.30;37.60;;;;;;5053638;28;20032;-62
2022/03/13 07:47:26;;;;;;;10.45;5.97;;;6.70;37.00;;;;;;5052338;28;20461;-62
2022/03/13 07:49:52;;;;;;;14.93;6.15;;;6.80;36.50;;;;;;5052504;28;20036;-62
2022/03/13 07:52:18;;;;;;;11.35;5.78;;;6.70;36.30;;;;;;5054509;28;20025;-62
2022/03/13 07:54:43;;;;;;;9.02;5.63;;;7.00;35.90;;;;;;5057765;28;20492;-62
2022/03/13 07:57:09;;;;;;;9.48;5.85;;;7.30;35.20;;;;;;5057249;28;20468;-62
2022/03/13 07:59:34;;;;;;;16.30;6.05;;;7.80;34.80;;;;;;5057555;28;20187;-62
2022/03/13 08:02:01;;;;;;;11.05;5.57;;;8.00;34.10;;;;;;5057603;28;20029;-62
2022/03/13 08:04:28;;;;;;;8.23;5.53;;;8.40;33.20;;;;;;5056289;28;20346;-62
2022/03/13 08:06:53;;;;;;;11.60;5.85;;;8.00;32.70;;;;;;5057075;28;20045;-62
2022/03/13 08:09:19;;;;;;;8.85;5.60;;;7.70;32.80;;;;;;5056204;28;20429;-61
2022/03/13 08:11:45;;;;;;;10.18;6.47;;;7.90;33.20;;;;;;5056266;28;20202;-61
2022/03/13 08:14:12;;;;;;;8.85;5.50;;;8.00;32.60;;;;;;5056072;28;20029;-62
2022/03/13 08:16:38;;;;;;;12.00;5.40;;;7.60;33.50;;;;;;5056550;28;20064;-61
2022/03/13 08:19:05;;;;;;;11.35;5.47;;;7.50;32.90;;;;;;5057894;28;20056;-62
2022/03/13 08:21:32;;;;;;;9.63;5.75;;;7.70;32.80;;;;;;5057353;28;20029;-62
2022/03/13 08:23:58;;;;;;;11.00;5.55;;;8.20;32.30;;;;;;5057428;28;20151;-61
2022/03/13 08:26:24;;;;;;;10.38;5.72;;;8.10;32.10;;;;;;5057224;28;20021;-62
2022/03/13 08:28:50;;;;;;;9.27;5.75;;;8.50;31.60;;;;;;5055902;28;20457;-62
2022/03/13 08:31:15;;;;;;;7.88;5.03;;;8.60;30.90;;;;;;5057166;28;20033;-62
2022/03/13 08:33:43;;;;;;;9.07;5.53;;;8.70;30.20;;;;;;5057026;28;20461;-61
2022/03/13 08:36:08;;;;;;;10.38;6.15;;;7.90;31.10;;;;;;5055705;28;20535;-62
2022/03/13 08:38:34;;;;;;;9.65;5.47;;;7.70;31.40;;;;;;5057242;28;20025;-61
2022/03/13 08:41:00;;;;;;;10.57;5.40;;;7.80;31.50;;;;;;5056985;28;20029;-61
2022/03/13 08:43:25;;;;;;;10.85;5.53;;;7.80;31.60;;;;;;5056856;28;20544;-62
2022/03/13 08:45:51;;;;;;;8.55;5.22;;;8.40;31.50;;;;;;5056506;28;20037;-62
2022/03/13 08:48:17;;;;;;;14.77;6.30;;;8.80;30.50;;;;;;5056669;28;20033;-62
2022/03/13 08:50:42;;;;;;;9.27;5.80;;;9.20;29.80;;;;;;5056614;28;20125;-61
2022/03/13 08:53:08;;;;;;;9.23;5.80;;;9.30;29.90;;;;;;5056418;28;20518;-62
2022/03/13 08:55:34;;;;;;;9.73;5.75;;;9.30;29.50;;;;;;5056080;28;20029;-62
2022/03/13 08:57:59;;;;;;;11.00;5.65;;;9.20;29.70;;;;;;5056290;28;20033;-62
2022/03/13 09:00:27;;;;;;;10.15;5.32;;;9.60;29.30;;;;;;5056799;28;20033;-63
2022/03/13 09:02:53;;;;;;;12.07;6.15;;;9.30;29.50;;;;;;5055129;28;20039;-62
2022/03/13 09:05:20;;;;;;;9.00;5.85;;;9.30;29.40;;;;;;5056449;28;20025;-62
2022/03/13 09:07:46;;;;;;;8.18;5.65;;;9.30;29.40;;;;;;5056029;28;20077;-61
2022/03/13 09:10:12;;;;;;;11.30;6.05;;;9.40;29.50;;;;;;5056079;28;20029;-62
2022/03/13 09:12:39;;;;;;;8.77;5.85;;;9.60;29.40;;;;;;5056006;28;20446;-61
2022/03/13 09:15:06;;;;;;;9.90;6.10;;;10.20;29.20;;;;;;5056551;28;20068;-62
2022/03/13 09:17:53;;;;;;;9.45;5.55;;;10.20;28.80;;;;;;5057655;28;20035;-70
2022/03/13 09:20:20;;;;;;;9.77;6.00;;;10.10;31.10;;;;;;5056931;28;20063;-70
2022/03/13 09:22:47;;;;;;;10.85;5.68;;;10.50;29.70;;;;;;5058648;28;20420;-67
2022/03/13 09:25:12;;;;;;;9.32;6.50;;;11.00;29.20;;;;;;5062421;28;20025;-66
2022/03/13 09:27:38;;;;;;;10.20;5.47;;;11.10;29.60;;;;;;5061501;28;20108;-70
2022/03/13 09:30:05;;;;;;;11.70;6.45;;;11.20;29.60;;;;;;5061675;28;20040;-68
2022/03/13 09:32:31;;;;;;;12.00;5.65;;;11.40;28.50;;;;;;5060095;28;20075;-68
2022/03/13 09:34:57;;;;;;;10.60;5.93;;;11.60;28.80;;;;;;5059677;28;20025;-68
2022/03/13 09:37:23;;;;;;;9.18;5.70;;;12.10;28.00;;;;;;5059466;28;20029;-70
2022/03/13 09:39:51;;;;;;;11.35;6.22;;;12.50;27.50;;;;;;5059946;28;20021;-71
2022/03/13 09:42:16;;;;;;;9.90;5.70;;;12.80;27.20;;;;;;5056453;28;20044;-64
2022/03/13 09:44:42;;;;;;;8.52;5.63;;;12.40;27.50;;;;;;5056293;28;20021;-64
2022/03/13 09:47:11;;;;;;;9.27;6.35;;;12.70;27.30;;;;;;5062482;28;20461;-69
2022/03/13 09:49:37;;;;;;;9.20;6.27;;;12.10;27.30;;;;;;5057973;28;20461;-61
2022/03/13 09:52:03;;;;;;;9.10;5.40;;;12.40;27.00;;;;;;5054247;28;20031;-61
2022/03/13 09:54:29;;;;;;;11.63;5.90;;;12.60;26.50;;;;;;5055517;28;20104;-61
2022/03/13 09:56:54;;;;;;;9.55;6.20;;;12.80;26.80;;;;;;5054268;28;20033;-61
2022/03/13 09:59:20;;;;;;;11.07;5.90;;;13.40;25.90;;;;;;5055133;28;20503;-61
2022/03/13 10:01:46;;;;;;;8.27;5.75;;;12.60;26.50;;;;;;5055716;28;20548;-61
2022/03/13 10:04:12;;;;;;;11.95;6.57;;;13.40;26.20;;;;;;5055048;28;20108;-61
2022/03/13 10:07:00;;;;;;;9.50;6.25;;;12.10;26.20;;;;;;5053761;28;20044;-61
2022/03/13 10:09:27;;;;;;;12.40;6.53;;;12.20;26.70;;;;;;5055151;28;20083;-61
2022/03/13 10:12:26;;;;;;;10.05;6.20;;;12.60;26.20;;;;;;5055165;28;20100;-61
2022/03/13 10:15:07;;;;;;;11.43;6.63;;;11.50;27.00;;;;;;5031166;28;20033;-61
2022/03/13 10:17:37;;;;;;;9.52;6.15;;;11.20;27.40;;;;;;5055662;28;20052;-62
2022/03/13 10:20:15;;;;;;;7.70;5.32;;;12.00;27.40;;;;;;5054968;28;20032;-61
2022/03/13 10:22:43;;;;;;;8.63;5.55;;;13.00;26.50;;;;;;5053768;28;20536;-62
2022/03/13 10:25:09;;;;;;;9.57;5.68;;;13.70;26.30;;;;;;5054094;28;20069;-62
2022/03/13 10:27:34;;;;;;;7.35;5.18;;;13.70;25.80;;;;;;5054973;28;20025;-62
2022/03/13 10:30:02;;;;;;;9.27;6.15;;;13.70;25.90;;;;;;5053587;28;20083;-62
2022/03/13 10:32:28;;;;;;;8.85;5.65;;;13.50;25.40;;;;;;5054112;28;20057;-62
2022/03/13 10:34:56;;;;;;;8.85;6.03;;;13.80;25.60;;;;;;5054797;28;20071;-62
2022/03/13 10:37:42;;;;;;;10.25;5.70;;;13.30;25.50;;;;;;5054353;28;20381;-61
2022/03/13 10:40:23;;;;;;;11.95;6.25;;;12.50;26.00;;;;;;5054836;28;20051;-62
2022/03/13 10:42:50;;;;;;;9.55;5.53;;;12.40;26.20;;;;;;5054643;28;20534;-62
2022/03/13 10:45:39;;;;;;;9.25;5.93;;;12.90;25.90;;;;;;5054563;28;20111;-62
2022/03/13 10:48:32;;;;;;;9.30;5.40;;;14.00;25.60;;;;;;5053323;28;20036;-62
2022/03/13 10:51:01;;;;;;;9.15;5.55;;;14.20;25.20;;;;;;5051828;28;20043;-61
2022/03/13 10:53:30;;;;;;;;;;;13.90;25.00;;;;;;5055111;28;20056;-62
2022/03/13 10:56:10;;;;;;;7.47;5.65;;;13.40;25.30;;;;;;5053108;28;19909;-61
2022/03/13 10:58:48;;;;;;;9.60;5.72;;;12.40;26.30;;;;;;5053102;28;20071;-61
2022/03/13 11:01:19;;;;;;;8.70;5.07;;;13.20;27.10;;;;;;5054589;28;20431;-62
2022/03/13 11:03:59;;;;;;;9.43;5.72;;;14.10;25.50;;;;;;5052975;28;20029;-62
2022/03/13 11:06:26;;;;;;;8.77;5.75;;;13.70;25.40;;;;;;5052755;28;20025;-62
2022/03/13 11:08:55;;;;;;;13.02;6.22;;;14.40;25.40;;;;;;5054270;28;20049;-62
2022/03/13 11:11:27;;;;;;;10.10;5.93;;;14.90;24.70;;;;;;5052836;28;20036;-61
2022/03/13 11:14:01;;;;;;;6.80;5.22;;;16.00;24.40;;;;;;5054070;28;20036;-61
2022/03/13 11:16:32;;;;;;;10.30;6.07;;;15.20;23.70;;;;;;5054079;28;20523;-62
2022/03/13 11:19:05;;;;;;;7.60;5.53;;;14.50;24.20;;;;;;5052691;28;20025;-62
2022/03/13 11:21:32;;;;;;;8.80;5.50;;;14.40;24.50;;;;;;5052581;28;20033;-63
2022/03/13 11:24:00;;;;;;;9.15;5.97;;;15.20;24.20;;;;;;5052620;28;20029;-62
2022/03/13 11:26:31;;;;;;;10.45;6.13;;;14.40;24.60;;;;;;5053476;28;20103;-62
2022/03/13 11:28:58;;;;;;;7.15;5.63;;;15.10;24.30;;;;;;5053669;28;20116;-62
2022/03/13 11:31:30;;;;;;;14.15;5.72;;;15.30;24.20;;;;;;5053816;28;20029;-62
2022/03/13 11:34:12;;;;;;;6.93;4.97;;;14.50;24.10;;;;;;5054082;28;20040;-62
2022/03/13 11:36:40;;;;;;;7.55;5.20;;;14.70;23.90;;;;;;5052563;28;20372;-62
2022/03/13 11:39:08;;;;;;;7.65;5.05;;;15.20;24.30;;;;;;5052488;28;20033;-62
2022/03/13 11:41:36;;;;;;;6.65;5.00;;;15.00;23.40;;;;;;5052381;28;20033;-62
2022/03/13 11:44:28;;;;;;;10.48;5.72;;;14.90;24.20;;;;;;5053734;28;20123;-62
2022/03/13 11:46:59;;;;;;;10.35;5.55;;;16.20;23.60;;;;;;5053639;28;20350;-62
2022/03/13 11:49:31;;;;;;;9.70;5.60;;;15.80;22.90;;;;;;5053673;28;20029;-63
2022/03/13 11:52:25;;;;;;;8.93;4.80;;;15.80;23.50;;;;;;5052861;28;20079;-62
2022/03/13 11:54:53;;;;;;;6.55;5.00;;;15.90;23.10;;;;;;5052728;28;20131;-62
2022/03/13 11:57:24;;;;;;;8.52;5.00;;;14.30;23.50;;;;;;5053539;28;20021;-62
2022/03/13 12:00:13;;;;;;;8.13;5.20;;;14.30;24.30;;;;;;5053504;28;20057;-62
2022/03/13 12:02:41;;;;;;;6.03;4.90;;;15.00;23.60;;;;;;5050140;28;20401;-61
2022/03/13 12:05:25;;;;;;;7.30;4.88;;;15.50;22.90;;;;;;5053447;28;20423;-60
2022/03/13 12:08:12;;;;;;;7.65;5.20;;;15.00;23.20;;;;;;5053735;28;20139;-60
2022/03/13 12:10:41;;;;;;;7.72;4.95;;;15.20;23.20;;;;;;5053671;28;20029;-60
2022/03/13 12:13:18;;;;;;;8.35;5.95;;;13.90;24.10;;;;;;5053086;28;20560;-60
2022/03/13 12:15:45;;;;;;;10.73;5.18;;;14.90;24.00;;;;;;5053429;28;20029;-58
2022/03/13 12:18:27;;;;;;;11.88;5.40;;;14.70;26.90;;;;;;5053383;28;20027;-59
2022/03/13 12:21:04;;;;;;;7.57;4.82;;;14.90;25.30;;;;;;5053296;28;20029;-58
2022/03/13 12:23:33;;;;;;;9.57;5.35;;;14.80;24.90;;;;;;5053892;28;20037;-61
2022/03/13 12:26:20;;;;;;;7.77;5.43;;;15.50;24.00;;;;;;5053471;28;20035;-61
2022/03/13 12:28:54;;;;;;;6.57;5.05;;;16.00;23.30;;;;;;5053577;28;20091;-61
2022/03/13 12:31:19;;;;;;;10.00;5.40;;;15.50;23.20;;;;;;5053466;28;20484;-60
2022/03/13 12:33:47;;;;;;;9.18;5.93;;;15.30;23.60;;;;;;5053515;28;20096;-60
2022/03/13 12:36:13;;;;;;;10.23;5.28;;;15.20;23.40;;;;;;5052871;28;20476;-61
2022/03/13 12:38:43;;;;;;;7.68;5.25;;;15.40;23.60;;;;;;5054586;28;20462;-60
2022/03/13 12:41:09;;;;;;;8.23;5.45;;;15.00;23.50;;;;;;5057250;28;20087;-61
2022/03/13 12:43:53;;;;;;;6.72;4.97;;;15.10;23.80;;;;;;5056808;28;20112;-61
2022/03/13 12:46:21;;;;;;;7.82;5.57;;;15.70;23.50;;;;;;5057385;28;20051;-61
2022/03/13 12:48:59;;;;;;;6.78;5.07;;;15.80;22.90;;;;;;5056871;28;20033;-61
2022/03/13 12:51:42;;;;;;;9.48;5.68;;;16.20;22.90;;;;;;5055445;28;20029;-61
2022/03/13 12:54:15;;;;;;;9.00;5.50;;;15.00;23.20;;;;;;5056919;28;20029;-61
2022/03/13 12:56:59;;;;;;;7.95;4.90;;;14.70;23.80;;;;;;5056645;28;20523;-61